Time;durP1;ratioP1;P1;durP2;ratioP2;P2;SDS_P1;SDS_P2;PMS_P1;PMS_P2;Temp;Humidity;BMP_temperature;BMP_pressure;BME280_temperature;BME280_humidity;BME280_pressure;Samples;Min_cycle;Max_cycle;Signal;HPM_P1;HPM_P2
2022/03/18 00:01:28;;;;;;;;;;;;;;;-1.31;51.36;102738.84;4991983;28;20396;-62
2022/03/18 00:04:12;;;;;;;;;;;;;;;-1.05;50.43;102739.09;4962027;28;20417;-62
2022/03/18 00:06:57;;;;;;;;;;;;;;;-0.87;50.05;102724.78;4989642;28;19932;-62
2022/03/18 00:09:41;;;;;;;;;;;;;;;-0.75;50.62;102730.00;4989106;28;19932;-62
2022/03/18 00:12:25;;;;;;;;;;;;;;;-0.71;50.32;102730.31;4992003;28;20259;-63
2022/03/18 00:15:11;;;;;;;;;;;;;;;-0.66;50.80;102722.81;4990968;28;20309;-62
2022/03/18 00:17:56;;;;;;;;;;;;;;;-0.63;51.03;102723.06;4990011;28;20405;-65
2022/03/18 00:20:41;;;;;;;;;;;;;;;-0.63;50.90;102731.75;4978017;28;20374;-61
2022/03/18 00:23:25;;;;;;;;;;;;;;;-0.65;51.60;102717.72;4987896;28;19936;-62
2022/03/18 00:26:10;;;;;;;;;;;;;;;-0.66;52.28;102726.31;4990836;28;19968;-63
2022/03/18 00:28:55;;;;;;;;;;;;;;;-0.80;53.23;102713.09;4989435;28;19943;-63
2022/03/18 00:31:39;;;;;;;;;;;;;;;-0.84;53.95;102714.59;4990611;28;20088;-62
2022/03/18 00:34:24;;;;;;;;;;;;;;;-1.00;54.87;102721.16;4991789;28;19929;-62
2022/03/18 00:37:09;;;;;;;;;;;;;;;-1.18;56.14;102722.44;4975954;28;20397;-67
2022/03/18 00:39:53;;;;;;;;;;;;;;;-1.29;56.58;102720.75;4976738;28;19968;-61
2022/03/18 00:42:38;;;;;;;;;;;;;;;-1.43;57.30;102716.19;4988459;28;20000;-62
2022/03/18 00:45:22;;;;;;;;;;;;;;;-1.41;58.46;102723.38;4975871;28;19928;-62
2022/03/18 00:54:14;;;;;;;;;;;;;;;-1.21;57.57;102720.53;4990956;28;19976;-62
2022/03/18 00:57:00;;;;;;;;;;;;;;;-1.23;57.78;102722.09;4977741;28;20433;-61
2022/03/18 00:59:45;;;;;;;;;;;;;;;-1.19;58.29;102715.44;4988655;28;19928;-63
2022/03/18 01:02:29;;;;;;;;;;;;;;;-1.17;58.73;102730.38;4990391;28;19983;-63
2022/03/18 01:05:14;;;;;;;;;;;;;;;-1.16;57.51;102723.44;4988337;28;20376;-62
2022/03/18 01:07:58;;;;;;;;;;;;;;;-1.17;56.81;102732.97;4975399;28;19972;-62
2022/03/18 01:10:44;;;;;;;;;;;;;;;-1.24;57.06;102742.81;4995057;28;19988;-62
2022/03/18 01:13:28;;;;;;;;;;;;;;;-1.44;57.67;102738.75;4962494;28;20013;-63
2022/03/18 01:16:13;;;;;;;;;;;;;;;-1.57;59.07;102732.50;4997208;28;20059;-63
2022/03/18 01:18:57;;;;;;;;;;;;;;;-1.81;60.05;102735.84;4979974;28;19927;-66
2022/03/18 01:21:43;;;;;;;;;;;;;;;-2.18;59.38;102724.31;4998386;28;19971;-62
2022/03/18 01:24:27;;;;;;;;;;;;;;;-2.43;61.14;102736.19;4952494;28;19944;-62
2022/03/18 01:27:12;;;;;;;;;;;;;;;-2.54;62.19;102741.34;4996668;28;19928;-62
2022/03/18 01:29:56;;;;;;;;;;;;;;;-2.53;62.07;102737.94;4996586;28;19984;-61
2022/03/18 01:32:41;;;;;;;;;;;;;;;-2.53;60.59;102733.63;4998200;28;19928;-62
2022/03/18 01:35:25;;;;;;;;;;;;;;;-2.49;60.39;102740.00;4996066;28;20389;-62
2022/03/18 01:38:09;;;;;;;;;;;;;;;-2.50;56.06;102738.19;4995986;28;19932;-65
2022/03/18 01:40:55;;;;;;;;;;;;;;;-2.88;54.45;102731.63;4998549;28;19929;-62
2022/03/18 01:43:41;;;;;;;;;;;;;;;-2.85;55.81;102734.47;4980498;28;19927;-62
2022/03/18 01:46:26;;;;;;;;;;;;;;;-3.08;54.97;102742.09;4981694;28;19927;-63
2022/03/18 01:49:11;;;;;;;;;;;;;;;-3.20;55.05;102742.00;4967816;28;19986;-63
2022/03/18 01:51:56;;;;;;;;;;;;;;;-3.21;59.07;102747.97;4982640;28;19935;-61
2022/03/18 01:54:44;;;;;;;;;;;;;;;-2.96;60.99;102750.88;4997731;28;19925;-62
2022/03/18 01:57:29;;;;;;;;;;;;;;;-2.74;61.97;102754.38;4994724;28;20329;-62
2022/03/18 02:00:15;;;;;;;;;;;;;;;-2.62;62.79;102753.69;4982737;28;19927;-62
2022/03/18 02:02:59;;;;;;;;;;;;;;;-2.41;65.45;102757.09;4980759;28;20325;-62
2022/03/18 02:05:44;;;;;;;;;;;;;;;-2.40;67.70;102751.09;4997550;28;19976;-65
2022/03/18 02:08:28;;;;;;;;;;;;;;;-2.50;65.75;102746.88;5000055;28;19968;-63
2022/03/18 02:11:14;;;;;;;;;;;;;;;-2.59;65.41;102743.56;4981964;28;19928;-66
2022/03/18 02:13:58;;;;;;;;;;;;;;;-2.44;66.72;102744.78;4998370;28;19936;-62
2022/03/18 02:16:42;;;;;;;;;;;;;;;-2.40;65.26;102754.63;4994754;28;19932;-65
2022/03/18 02:19:27;;;;;;;;;;;;;;;-2.57;63.26;102748.88;4995847;28;20030;-62
2022/03/18 02:22:17;;;;;;;;;;;;;;;-2.76;60.06;102750.78;4979785;28;19933;-61
2022/03/18 02:25:02;;;;;;;;;;;;;;;-2.86;60.22;102746.53;4980229;28;19983;-63
2022/03/18 02:27:55;;;;;;;;;;;;;;;-2.92;60.26;102753.84;4995077;28;20329;-61
2022/03/18 02:30:39;;;;;;;;;;;;;;;-2.85;60.40;102753.53;4962240;28;19979;-61
2022/03/18 02:33:23;;;;;;;;;;;;;;;-2.69;62.04;102760.88;4978070;28;20286;-63
2022/03/18 02:36:08;;;;;;;;;;;;;;;-2.57;62.61;102759.25;4994747;28;19928;-62
2022/03/18 02:38:52;;;;;;;;;;;;;;;-2.49;62.77;102761.66;4981713;28;19929;-62
2022/03/18 02:41:37;;;;;;;;;;;;;;;-2.55;62.95;102758.59;4995184;28;19932;-62
2022/03/18 02:44:21;;;;;;;;;;;;;;;-2.42;64.35;102760.47;4978698;28;19929;-64
2022/03/18 02:47:06;;;;;;;;;;;;;;;-2.35;66.80;102763.66;4993048;28;19928;-65
2022/03/18 02:49:50;;;;;;;;;;;;;;;-2.31;70.28;102759.59;4993534;28;20039;-62
2022/03/18 02:52:35;;;;;;;;;;;;;;;-2.24;72.07;102755.03;4977385;28;19941;-63
2022/03/18 02:55:19;;;;;;;;;;;;;;;-2.18;74.66;102767.59;4990539;28;20044;-61
2022/03/18 02:58:04;;;;;;;;;;;;;;;-2.05;74.61;102763.44;4992898;28;20397;-61
2022/03/18 03:00:48;;;;;;;;;;;;;;;-1.94;76.27;102762.59;4980198;28;19976;-62
2022/03/18 03:03:33;;;;;;;;;;;;;;;-1.86;77.05;102766.69;4993009;28;19929;-63
2022/03/18 03:09:20;;;;;;;;;;;;;;;-1.89;76.05;102758.66;4994729;28;20625;-64
2022/03/18 03:12:05;;;;;;;;;;;;;;;-1.97;74.73;102757.16;4980087;28;19928;-61
2022/03/18 03:14:50;;;;;;;;;;;;;;;-2.04;72.45;102756.56;4981058;28;19968;-62
2022/03/18 03:17:34;;;;;;;;;;;;;;;-2.15;72.09;102763.53;4977299;28;19928;-66
2022/03/18 03:20:19;;;;;;;;;;;;;;;-2.34;69.76;102765.47;4991136;28;20012;-63
2022/03/18 03:23:05;;;;;;;;;;;;;;;-2.61;67.43;102763.28;4990505;28;19972;-62
2022/03/18 03:25:50;;;;;;;;;;;;;;;-2.77;66.09;102754.16;5000356;28;19959;-63
2022/03/18 03:28:35;;;;;;;;;;;;;;;-2.82;66.46;102756.38;4986913;28;20695;-62
2022/03/18 03:31:19;;;;;;;;;;;;;;;-2.91;66.01;102758.25;4997920;28;20293;-64
2022/03/18 03:34:04;;;;;;;;;;;;;;;-3.10;65.11;102749.75;4979430;28;19929;-63
2022/03/18 03:36:48;;;;;;;;;;;;;;;-3.38;66.20;102756.06;4990400;28;20048;-67
2022/03/18 03:39:34;;;;;;;;;;;;;;;-3.39;69.82;102756.84;4992271;28;19929;-63
2022/03/18 03:42:18;;;;;;;;;;;;;;;-3.38;77.81;102763.84;4991836;28;19928;-63
2022/03/18 03:45:03;;;;;;;;;;;;;;;-3.26;83.93;102762.25;4996073;28;19968;-62
2022/03/18 03:47:47;;;;;;;;;;;;;;;-2.98;84.20;102760.19;4993732;28;19929;-62
2022/03/18 03:50:32;;;;;;;;;;;;;;;-2.76;85.80;102763.75;4984122;28;20016;-61
2022/03/18 03:53:17;;;;;;;;;;;;;;;-2.52;85.96;102758.84;4980569;28;19928;-61
2022/03/18 03:56:02;;;;;;;;;;;;;;;-2.53;83.66;102741.41;4991562;28;19968;-74
2022/03/18 03:58:46;;;;;;;;;;;;;;;-2.31;82.62;102762.19;4990641;28;19945;-63
2022/03/18 04:01:31;;;;;;;;;;;;;;;-2.26;84.89;102771.28;4989990;28;19928;-62
2022/03/18 04:04:16;;;;;;;;;;;;;;;-2.49;88.28;102771.16;4977780;28;20426;-61
2022/03/18 04:07:01;;;;;;;;;;;;;;;-2.89;92.40;102769.66;4989483;28;19936;-61
2022/03/18 04:09:49;;;;;;;;;;;;;;;-2.82;91.45;102766.78;4990688;28;19953;-62
2022/03/18 04:12:34;;;;;;;;;;;;;;;-2.61;92.24;102762.41;4989994;28;20035;-61
2022/03/18 04:15:18;;;;;;;;;;;;;;;-2.61;89.74;102771.06;4988685;28;20329;-74
2022/03/18 04:18:02;;;;;;;;;;;;;;;-2.62;87.82;102760.56;4977229;28;20406;-63
2022/03/18 04:20:47;;;;;;;;;;;;;;;-2.80;87.68;102770.41;4988618;28;20028;-61
2022/03/18 04:23:31;;;;;;;;;;;;;;;-3.00;90.34;102762.69;4990390;28;19972;-61
2022/03/18 04:26:16;;;;;;;;;;;;;;;-2.97;91.64;102765.53;4974568;28;20036;-61
2022/03/18 04:29:00;;;;;;;;;;;;;;;-2.84;91.82;102770.94;4990357;28;19933;-62
2022/03/18 04:31:45;;;;;;;;;;;;;;;-2.50;91.55;102764.16;4993668;28;20385;-62
2022/03/18 04:34:29;;;;;;;;;;;;;;;-2.32;91.41;102773.41;4995615;28;19929;-67
2022/03/18 04:37:13;;;;;;;;;;;;;;;-2.19;89.72;102765.75;4992896;28;20505;-63
2022/03/18 04:39:58;;;;;;;;;;;;;;;-2.07;88.59;102774.50;4988012;28;20025;-63
2022/03/18 04:42:44;;;;;;;;;;;;;;;-1.95;85.75;102773.78;4990075;28;20452;-63
2022/03/18 04:45:29;;;;;;;;;;;;;;;-1.90;85.50;102772.44;4959609;28;20017;-64
2022/03/18 04:48:13;;;;;;;;;;;;;;;-1.81;85.21;102773.16;4989522;28;20032;-62
2022/03/18 04:50:58;;;;;;;;;;;;;;;-1.80;84.83;102769.78;4977019;28;19944;-61
2022/03/18 04:53:43;;;;;;;;;;;;;;;-1.81;87.52;102775.78;4990799;28;19972;-63
2022/03/18 04:59:30;;;;;;;;;;;;;;;-1.83;92.79;102779.00;4993528;28;19932;-63
2022/03/18 05:02:15;;;;;;;;;;;;;;;-1.89;91.01;102782.06;4990432;28;19929;-64
2022/03/18 05:04:59;;;;;;;;;;;;;;;-1.84;93.10;102777.22;4977557;28;19932;-63
2022/03/18 05:07:47;;;;;;;;;;;;;;;-2.06;89.37;102777.25;4987637;28;20011;-68
2022/03/18 05:10:31;;;;;;;;;;;;;;;-2.24;89.40;102782.69;4989956;28;20141;-64
2022/03/18 05:13:16;;;;;;;;;;;;;;;-2.22;90.38;102782.03;4989131;28;19968;-63
2022/03/18 05:16:01;;;;;;;;;;;;;;;-2.09;88.45;102782.19;4949518;28;19959;-62
2022/03/18 05:18:45;;;;;;;;;;;;;;;-1.95;84.78;102773.78;4995263;28;19928;-64
2022/03/18 05:21:30;;;;;;;;;;;;;;;-1.91;82.69;102775.84;4991529;28;19976;-63
2022/03/18 05:24:14;;;;;;;;;;;;;;;-1.76;84.29;102769.22;4975533;28;19968;-63
2022/03/18 05:26:59;;;;;;;;;;;;;;;-1.84;82.83;102772.00;4987425;28;20011;-68
2022/03/18 05:29:44;;;;;;;;;;;;;;;-1.69;80.78;102762.78;4989779;28;19937;-63
2022/03/18 05:32:28;;;;;;;;;;;;;;;-1.61;81.24;102759.06;4987989;28;20397;-62
2022/03/18 05:35:13;;;;;;;;;;;;;;;-1.33;81.57;102763.88;4989208;28;19929;-63
2022/03/18 05:37:57;;;;;;;;;;;;;;;-1.08;81.15;102769.19;4988516;28;19976;-62
2022/03/18 05:40:42;;;;;;;;;;;;;;;-0.72;77.46;102769.25;4991535;28;19968;-68
2022/03/18 05:43:26;;;;;;;;;;;;;;;-0.57;75.29;102771.28;4990879;28;20404;-64
2022/03/18 05:46:11;;;;;;;;;;;;;;;-0.46;72.35;102767.75;4989751;28;19930;-72
2022/03/18 05:48:55;;;;;;;;;;;;;;;-0.26;69.59;102759.66;4994765;28;19932;-63
2022/03/18 05:51:40;;;;;;;;;;;;;;;-0.17;68.00;102761.97;4967371;28;20389;-64
2022/03/18 05:54:24;;;;;;;;;;;;;;;0.09;69.45;102762.13;4970625;28;19929;-63
2022/03/18 05:57:11;;;;;;;;;;;;;;;0.32;64.83;102758.47;4969704;28;19929;-62
2022/03/18 05:59:57;;;;;;;;;;;;;;;0.53;64.12;102760.84;4969967;28;19973;-64
2022/03/18 06:02:42;;;;;;;;;;;;;;;0.72;63.49;102762.97;4976697;28;19968;-63
2022/03/18 06:05:26;;;;;;;;;;;;;;;0.75;62.10;102757.94;4975029;28;19984;-67
2022/03/18 06:14:16;;;;;;;;;;;;;;;0.79;57.54;102758.22;4973576;28;19968;-64
2022/03/18 06:17:02;;;;;;;;;;;;;;;0.87;57.17;102751.81;4973902;28;20405;-63
2022/03/18 06:19:47;;;;;;;;;;;;;;;0.82;55.31;102752.34;4973917;28;19988;-63
2022/03/18 06:22:32;;;;;;;;;;;;;;;0.92;54.10;102745.22;4977474;28;19929;-67
2022/03/18 06:25:18;;;;;;;;;;;;;;;0.99;53.23;102744.78;4975829;28;19972;-63
2022/03/18 06:28:02;;;;;;;;;;;;;;;1.08;52.25;102741.88;4970379;28;19972;-63
2022/03/18 06:30:47;;;;;;;;;;;;;;;1.11;51.73;102739.47;4958386;28;19937;-64
2022/03/18 06:33:32;;;;;;;;;;;;;;;1.20;50.71;102747.91;4960890;28;20314;-64
2022/03/18 06:36:17;;;;;;;;;;;;;;;1.22;51.12;102743.69;4959197;28;19981;-65
2022/03/18 06:39:06;;;;;;;;;;;;;;;1.45;51.86;102744.34;4975317;28;19929;-63
2022/03/18 06:41:50;;;;;;;;;;;;;;;1.58;50.47;102738.19;4971617;28;20302;-66
2022/03/18 06:44:35;;;;;;;;;;;;;;;1.74;49.65;102731.38;4946420;28;19929;-64
2022/03/18 06:47:19;;;;;;;;;;;;;;;1.75;49.23;102732.28;4970687;28;19944;-64
2022/03/18 06:50:04;;;;;;;;;;;;;;;1.80;48.37;102721.31;4972272;28;20441;-63
2022/03/18 06:52:48;;;;;;;;;;;;;;;1.94;47.45;102717.81;4990126;28;20328;-64
2022/03/18 06:55:33;;;;;;;;;;;;;;;2.15;46.38;102713.91;4993747;28;19928;-63
2022/03/18 06:58:17;;;;;;;;;;;;;;;2.25;45.41;102713.63;4993717;28;19976;-63
2022/03/18 07:01:01;;;;;;;;;;;;;;;2.37;44.86;102710.84;4976664;28;19928;-68
2022/03/18 07:03:48;;;;;;;;;;;;;;;2.40;43.88;102717.16;4977640;28;19984;-63
2022/03/18 07:06:32;;;;;;;;;;;;;;;2.39;43.78;102719.69;4991364;28;19928;-63
2022/03/18 07:09:17;;;;;;;;;;;;;;;2.55;43.29;102697.13;4993491;28;19983;-62
2022/03/18 07:12:01;;;;;;;;;;;;;;;2.57;43.03;102702.47;4977629;28;19952;-63
2022/03/18 07:14:46;;;;;;;;;;;;;;;2.74;42.64;102700.00;4993888;28;19929;-63
2022/03/18 07:20:35;;;;;;;;;;;;;;;3.66;41.37;102703.53;4991186;28;19944;-63
2022/03/18 07:23:22;;;;;;;;;;;;;;;4.59;39.74;102704.97;4977558;28;19968;-60
2022/03/18 07:26:06;;;;;;;;;;;;;;;5.79;37.63;102702.97;4995563;28;19940;-63
2022/03/18 07:28:51;;;;;;;;;;;;;;;6.75;35.75;102702.03;4991943;28;19928;-67
2022/03/18 07:31:35;;;;;;;;;;;;;;;7.60;34.53;102693.22;4994827;28;20056;-62
2022/03/18 07:34:21;;;;;;;;;;;;;;;8.67;33.16;102687.50;4975278;28;20060;-63
2022/03/18 07:37:06;;;;;;;;;;;;;;;9.03;30.81;102686.09;4950152;28;19929;-65
2022/03/18 07:39:50;;;;;;;;;;;;;;;9.64;30.11;102691.56;4994545;28;19943;-63
2022/03/18 07:42:42;;;;;;;;;;;;;;;10.56;29.00;102689.84;4991312;28;19968;-63
2022/03/18 07:45:28;;;;;;;;;;;;;;;11.03;29.40;102676.91;4993095;28;19995;-63
2022/03/18 07:48:12;;;;;;;;;;;;;;;11.10;26.98;102667.31;4961059;28;19928;-63
2022/03/18 07:50:57;;;;;;;;;;;;;;;11.17;27.36;102672.84;4993688;28;19952;-66
2022/03/18 07:53:41;;;;;;;;;;;;;;;12.52;25.92;102680.19;4994874;28;19983;-67
2022/03/18 07:56:26;;;;;;;;;;;;;;;13.96;23.96;102684.28;4996849;28;19928;-64
2022/03/18 07:59:10;;;;;;;;;;;;;;;14.54;24.19;102690.31;4995895;28;19945;-63
2022/03/18 08:01:55;;;;;;;;;;;;;;;14.49;23.14;102665.38;4992474;28;19964;-69
2022/03/18 08:04:39;;;;;;;;;;;;;;;16.06;23.05;102686.13;4979136;28;20396;-64
2022/03/18 08:07:26;;;;;;;;;;;;;;;15.93;23.07;102671.78;4977528;28;19928;-64
2022/03/18 08:10:11;;;;;;;;;;;;;;;15.16;22.55;102680.22;4992297;28;19928;-64
2022/03/18 08:12:56;;;;;;;;;;;;;;;14.92;22.80;102686.25;4975072;28;20432;-63
2022/03/18 08:15:40;;;;;;;;;;;;;;;15.00;23.42;102683.63;4976053;28;19975;-64
2022/03/18 08:18:25;;;;;;;;;;;;;;;15.40;22.12;102684.00;4992404;28;19984;-64
2022/03/18 08:21:10;;;;;;;;;;;;;;;15.96;22.06;102684.28;4990755;28;19933;-67
2022/03/18 08:23:56;;;;;;;;;;;;;;;17.43;20.55;102687.25;4961861;28;19968;-65
2022/03/18 08:26:40;;;;;;;;;;;;;;;17.40;20.57;102685.47;4974888;28;20349;-64
2022/03/18 08:29:24;;;;;;;;;;;;;;;17.78;20.92;102688.06;4991640;28;19928;-65
2022/03/18 08:32:14;;;;;;;;;;;;;;;19.02;18.92;102683.78;4990237;28;19928;-64
2022/03/18 08:34:59;;;;;;;;;;;;;;;18.26;19.94;102698.63;4990348;28;19976;-63
2022/03/18 08:37:58;;;;;;;;;;;;;;;18.06;18.21;102695.13;4975942;28;19932;-62
2022/03/18 08:40:43;;;;;;;;;;;;;;;18.53;17.64;102700.28;4961059;28;19976;-64
2022/03/18 08:43:27;;;;;;;;;;;;;;;19.30;17.66;102696.13;4991526;28;19932;-63
2022/03/18 08:46:12;;;;;;;;;;;;;;;21.22;16.78;102695.41;4990002;28;19975;-62
2022/03/18 08:48:56;;;;;;;;;;;;;;;21.56;17.61;102696.63;4975502;28;19967;-63
2022/03/18 08:51:41;;;;;;;;;;;;;;;21.36;16.06;102683.47;4975202;28;20013;-65
2022/03/18 08:54:25;;;;;;;;;;;;;;;21.47;16.30;102691.34;4972560;28;19944;-65
2022/03/18 08:57:10;;;;;;;;;;;;;;;21.87;14.79;102692.41;4991526;28;19940;-64
2022/03/18 08:59:55;;;;;;;;;;;;;;;23.09;15.03;102681.53;4989071;28;20357;-64
2022/03/18 09:02:41;;;;;;;;;;;;;;;22.24;15.82;102679.94;4990501;28;19929;-63
2022/03/18 09:05:25;;;;;;;;;;;;;;;22.58;15.59;102664.72;4961995;28;20251;-64
2022/03/18 09:08:10;;;;;;;;;;;;;;;22.68;15.53;102663.59;4991363;28;19928;-64
2022/03/18 09:10:55;;;;;;;;;;;;;;;22.08;14.87;102653.25;4989773;28;19929;-64
2022/03/18 09:13:39;;;;;;;;;;;;;;;22.36;15.53;102671.53;4988573;28;20313;-68
2022/03/18 09:16:23;;;;;;;;;;;;;;;22.04;14.63;102666.81;4989347;28;19970;-66
2022/03/18 09:19:08;;;;;;;;;;;;;;;23.16;13.57;102669.59;4988530;28;20004;-63
2022/03/18 09:21:52;;;;;;;;;;;;;;;23.28;14.07;102656.69;4990377;28;19929;-64
2022/03/18 09:24:37;;;;;;;;;;;;;;;23.67;13.74;102668.25;4992719;28;20239;-64
2022/03/18 09:27:22;;;;;;;;;;;;;;;24.58;12.62;102665.50;4975213;28;19976;-63
2022/03/18 09:30:11;;;;;;;;;;;;;;;24.24;13.16;102659.34;4961029;28;19929;-64
2022/03/18 09:32:55;;;;;;;;;;;;;;;23.51;13.35;102656.94;4988244;28;19929;-65
2022/03/18 09:35:40;;;;;;;;;;;;;;;23.89;13.92;102651.31;4978380;28;19937;-65
2022/03/18 09:38:24;;;;;;;;;;;;;;;24.51;13.14;102644.91;4991690;28;19929;-65
2022/03/18 09:41:09;;;;;;;;;;;;;;;23.79;13.50;102638.97;4995258;28;19975;-63
2022/03/18 09:43:53;;;;;;;;;;;;;;;24.12;13.11;102650.66;4995681;28;20297;-63
2022/03/18 09:46:40;;;;;;;;;;;;;;;24.90;12.65;102651.78;4995128;28;19972;-64
2022/03/18 09:49:24;;;;;;;;;;;;;;;25.20;11.93;102639.88;4981684;28;19940;-63
2022/03/18 09:52:10;;;;;;;;;;;;;;;25.19;11.44;102635.38;4977353;28;19931;-64
2022/03/18 09:54:55;;;;;;;;;;;;;;;25.98;11.45;102635.28;4980561;28;20345;-65
2022/03/18 09:57:39;;;;;;;;;;;;;;;25.91;10.84;102624.56;4991964;28;19945;-64
2022/03/18 10:00:24;;;;;;;;;;;;;;;24.29;12.12;102624.81;4995634;28;20401;-63
2022/03/18 10:03:21;;;;;;;;;;;;;;;24.18;12.86;102615.25;4994828;28;19932;-63
2022/03/18 10:06:07;;;;;;;;;;;;;;;23.73;13.33;102612.03;4976912;28;19927;-65
2022/03/18 10:08:52;;;;;;;;;;;;;;;24.74;12.74;102615.25;4978808;28;19964;-62
2022/03/18 10:11:37;;;;;;;;;;;;;;;24.56;13.07;102604.94;4992373;28;20016;-69
2022/03/18 10:14:25;;;;;;;;;;;;;;;25.74;11.81;102604.41;4993870;28;19944;-64
2022/03/18 10:17:10;;;;;;;;;;;;;;;26.07;11.52;102605.88;4980714;28;19928;-63
2022/03/18 10:19:54;;;;;;;;;;;;;;;26.48;11.55;102604.22;4992292;28;20389;-68
2022/03/18 10:22:39;;;;;;;;;;;;;;;25.70;12.05;102598.22;4994884;28;19928;-65
2022/03/18 10:25:38;;;;;;;;;;;;;;;25.05;11.63;102594.25;4976400;28;19944;-63
2022/03/18 10:28:32;;;;;;;;;;;;;;;22.62;13.76;102585.28;4993141;28;19928;-70
2022/03/18 10:31:21;;;;;;;;;;;;;;;22.91;13.08;102587.25;4979754;28;20461;-64
2022/03/18 10:37:12;;;;;;;;;;;;;;;25.19;12.51;102581.06;4991220;28;19976;-65
2022/03/18 10:40:00;;;;;;;;;;;;;;;23.48;12.47;102588.41;4992694;28;19953;-65
2022/03/18 10:42:57;;;;;;;;;;;;;;;23.94;12.81;102587.06;4994722;28;19975;-64
2022/03/18 10:45:58;;;;;;;;;;;;;;;24.10;12.98;102584.75;4962447;28;19928;-64
2022/03/18 10:48:59;;;;;;;;;;;;;;;25.04;11.81;102587.03;4992210;28;19935;-66
2022/03/18 10:51:44;;;;;;;;;;;;;;;24.57;13.03;102574.13;4991779;28;19928;-65
2022/03/18 10:54:29;;;;;;;;;;;;;;;24.05;12.92;102576.75;4993583;28;19928;-64
2022/03/18 10:57:17;;;;;;;;;;;;;;;22.12;13.63;102569.34;4993399;28;19929;-64
2022/03/18 11:00:01;;;;;;;;;;;;;;;21.28;14.57;102560.34;4963891;28;19980;-64
2022/03/18 11:02:48;;;;;;;;;;;;;;;20.39;14.82;102552.91;4990396;28;19933;-64
2022/03/18 11:05:32;;;;;;;;;;;;;;;19.37;15.35;102539.06;4979078;28;19980;-64
2022/03/18 11:08:24;;;;;;;;;;;;;;;18.24;15.72;102559.81;4976326;28;19953;-63
2022/03/18 11:11:20;;;;;;;;;;;;;;;17.93;15.94;102556.44;4977474;28;20310;-63
2022/03/18 11:14:08;;;;;;;;;;;;;;;18.10;16.04;102554.53;4993299;28;19928;-62
2022/03/18 11:16:52;;;;;;;;;;;;;;;19.70;15.82;102560.19;4993831;28;19925;-64
2022/03/18 11:19:36;;;;;;;;;;;;;;;21.01;14.83;102545.53;4991086;28;19929;-65
2022/03/18 11:22:22;;;;;;;;;;;;;;;22.33;13.95;102549.00;4993674;28;19979;-64
2022/03/18 11:25:09;;;;;;;;;;;;;;;22.31;13.48;102550.88;4989803;28;19929;-65
2022/03/18 11:27:56;;;;;;;;;;;;;;;22.15;13.82;102542.22;4993839;28;19996;-64
2022/03/18 11:30:41;;;;;;;;;;;;;;;21.99;14.19;102541.69;4989639;28;19928;-63
2022/03/18 11:33:27;;;;;;;;;;;;;;;21.81;14.18;102534.03;4989995;28;19987;-64
2022/03/18 11:36:13;;;;;;;;;;;;;;;20.88;14.33;102540.38;4991037;28;20643;-63
2022/03/18 11:39:02;;;;;;;;;;;;;;;21.03;14.96;102532.94;4992304;28;19973;-69
2022/03/18 11:42:03;;;;;;;;;;;;;;;21.36;14.59;102532.25;4991803;28;20459;-65
2022/03/18 11:44:53;;;;;;;;;;;;;;;20.18;15.30;102520.94;4963515;28;20289;-65
2022/03/18 11:47:40;;;;;;;;;;;;;;;19.64;15.73;102525.28;4976087;28;19933;-65
2022/03/18 11:50:37;;;;;;;;;;;;;;;19.91;15.68;102518.59;4978402;28;20341;-65
2022/03/18 11:53:40;;;;;;;;;;;;;;;19.06;16.19;102509.81;4976893;28;19929;-68
2022/03/18 11:56:47;;;;;;;;;;;;;;;18.52;16.16;102516.66;4994694;28;19937;-66
2022/03/18 11:59:38;;;;;;;;;;;;;;;18.61;16.49;102513.88;4974284;28;20027;-65
2022/03/18 12:02:31;;;;;;;;;;;;;;;18.13;16.52;102511.56;4976373;28;19928;-64
2022/03/18 12:05:17;;;;;;;;;;;;;;;18.15;16.34;102503.50;4990789;28;19928;-64
2022/03/18 12:08:11;;;;;;;;;;;;;;;17.12;17.38;102506.69;4976092;28;19932;-64
2022/03/18 12:11:00;;;;;;;;;;;;;;;17.68;17.21;102512.72;4989441;28;20297;-65
2022/03/18 12:13:44;;;;;;;;;;;;;;;18.08;17.28;102508.88;4991862;28;19928;-64
2022/03/18 12:16:30;;;;;;;;;;;;;;;18.25;16.89;102507.88;4990529;28;19929;-66
2022/03/18 12:19:15;;;;;;;;;;;;;;;17.95;17.16;102503.59;4976736;28;20031;-64
2022/03/18 12:22:00;;;;;;;;;;;;;;;17.59;17.49;102506.50;4989630;28;19968;-65
2022/03/18 12:24:49;;;;;;;;;;;;;;;17.17;17.59;102498.63;4968656;28;19928;-65
2022/03/18 12:27:36;;;;;;;;;;;;;;;17.00;17.92;102509.41;4974866;28;19928;-65
2022/03/18 12:30:21;;;;;;;;;;;;;;;17.17;18.08;102502.19;4986739;28;19928;-66
2022/03/18 12:33:08;;;;;;;;;;;;;;;16.70;18.43;102504.09;4992032;28;19932;-63
2022/03/18 12:35:52;;;;;;;;;;;;;;;16.75;18.58;102504.09;4984974;28;20055;-66
2022/03/18 12:38:37;;;;;;;;;;;;;;;16.68;18.44;102494.28;4991396;28;19929;-63
2022/03/18 12:41:21;;;;;;;;;;;;;;;16.23;18.75;102494.28;4974579;28;19920;-70
2022/03/18 12:44:06;;;;;;;;;;;;;;;15.87;18.84;102495.13;4992101;28;19945;-60
2022/03/18 12:46:51;;;;;;;;;;;;;;;15.87;19.14;102492.44;4991358;28;19928;-63
2022/03/18 12:49:36;;;;;;;;;;;;;;;15.85;19.08;102496.00;4989108;28;19968;-68
2022/03/18 12:52:21;;;;;;;;;;;;;;;15.87;19.37;102495.13;4947773;28;20384;-63
2022/03/18 12:55:10;;;;;;;;;;;;;;;15.79;19.50;102488.00;4987949;28;19929;-63
2022/03/18 12:57:59;;;;;;;;;;;;;;;15.57;19.52;102488.81;4976666;28;19925;-63
2022/03/18 13:00:46;;;;;;;;;;;;;;;15.20;19.79;102482.41;4974962;28;20432;-62
2022/03/18 13:03:34;;;;;;;;;;;;;;;15.21;19.89;102481.53;4988430;28;19996;-69
2022/03/18 13:06:20;;;;;;;;;;;;;;;15.11;20.34;102479.69;4975236;28;19936;-64
2022/03/18 13:09:09;;;;;;;;;;;;;;;15.35;20.20;102479.81;4988127;28;20293;-64
2022/03/18 13:11:53;;;;;;;;;;;;;;;15.56;19.64;102481.69;4976599;28;19928;-63
2022/03/18 13:14:40;;;;;;;;;;;;;;;15.61;19.89;102478.13;4988556;28;19972;-65
2022/03/18 13:17:31;;;;;;;;;;;;;;;15.66;20.05;102473.69;4960229;28;19975;-72
2022/03/18 13:20:24;;;;;;;;;;;;;;;15.53;20.20;102471.88;4961387;28;19928;-62
2022/03/18 13:23:09;;;;;;;;;;;;;;;15.55;20.03;102464.72;4961173;28;19976;-63
2022/03/18 13:25:54;;;;;;;;;;;;;;;15.27;20.51;102464.63;4987348;28;19929;-68
2022/03/18 13:28:40;;;;;;;;;;;;;;;15.26;20.65;102450.34;4984826;28;20396;-63
2022/03/18 13:34:28;;;;;;;;;;;;;;;15.09;20.65;102430.69;4972017;28;19929;-71
2022/03/18 13:37:14;;;;;;;;;;;;;;;15.25;20.61;102453.91;4991135;28;19939;-62
2022/03/18 13:40:10;;;;;;;;;;;;;;;14.89;20.31;102448.41;4972809;28;19972;-62
2022/03/18 13:43:01;;;;;;;;;;;;;;;14.52;21.21;102450.84;4987298;28;20341;-70
2022/03/18 13:45:45;;;;;;;;;;;;;;;14.27;21.59;102444.44;4975166;28;19991;-61
2022/03/18 13:48:30;;;;;;;;;;;;;;;14.49;21.74;102445.50;4955124;28;20025;-65
2022/03/18 13:51:31;;;;;;;;;;;;;;;14.38;21.07;102442.75;4989487;28;19928;-63
2022/03/18 13:54:17;;;;;;;;;;;;;;;14.52;21.18;102445.53;4961112;28;19927;-64
2022/03/18 13:57:03;;;;;;;;;;;;;;;14.55;21.23;102435.75;4969589;28;20286;-64
2022/03/18 13:59:50;;;;;;;;;;;;;;;14.45;21.54;102446.34;4972953;28;19960;-64
2022/03/18 14:02:36;;;;;;;;;;;;;;;14.70;21.68;102446.53;4973618;28;19928;-64
2022/03/18 14:05:21;;;;;;;;;;;;;;;14.86;21.41;102447.47;4960617;28;19929;-65
2022/03/18 14:08:07;;;;;;;;;;;;;;;14.71;21.45;102447.44;4960292;28;19968;-63
2022/03/18 14:10:52;;;;;;;;;;;;;;;14.44;21.54;102439.25;4959043;28;20088;-70
2022/03/18 14:13:37;;;;;;;;;;;;;;;14.15;22.02;102440.78;4989750;28;19928;-64
2022/03/18 14:16:21;;;;;;;;;;;;;;;14.16;22.08;102437.22;4972519;28;20317;-63
2022/03/18 14:19:06;;;;;;;;;;;;;;;14.01;22.22;102435.31;4986771;28;19944;-64
2022/03/18 14:21:51;;;;;;;;;;;;;;;13.77;22.19;102433.31;4961112;28;19933;-64
2022/03/18 14:24:37;;;;;;;;;;;;;;;13.26;22.92;102435.44;4965066;28;19944;-65
2022/03/18 14:27:23;;;;;;;;;;;;;;;12.99;23.04;102431.56;4964217;28;20289;-62
2022/03/18 14:30:10;;;;;;;;;;;;;;;12.63;23.32;102420.38;4975642;28;20025;-70
2022/03/18 14:32:58;;;;;;;;;;;;;;;12.41;23.67;102416.53;4963545;28;19929;-62
2022/03/18 14:35:43;;;;;;;;;;;;;;;12.25;24.57;102416.25;4976508;28;20032;-64
2022/03/18 14:38:28;;;;;;;;;;;;;;;12.08;24.46;102410.69;4978971;28;20053;-65
2022/03/18 14:41:13;;;;;;;;;;;;;;;11.83;24.57;102410.25;4977742;28;20394;-64